sensor_id;sensor_type;location;lat;lon;timestamp;P1;durP1;ratioP1;P2;durP2;ratioP2
35150;SDS011;55720;51.972;4.624;2023-12-22T00:00:35;25.52;;;3.15;;
35150;SDS011;55720;51.972;4.624;2023-12-22T00:03:00;17.03;;;1.80;;
35150;SDS011;55720;51.972;4.624;2023-12-22T00:05:25;20.03;;;1.43;;
35150;SDS011;55720;51.972;4.624;2023-12-22T00:07:51;22.15;;;1.95;;
35150;SDS011;55720;51.972;4.624;2023-12-22T00:10:16;16.90;;;1.90;;
35150;SDS011;55720;51.972;4.624;2023-12-22T00:12:41;22.27;;;2.85;;
35150;SDS011;55720;51.972;4.624;2023-12-22T00:15:07;33.85;;;2.53;;
35150;SDS011;55720;51.972;4.624;2023-12-22T00:17:32;28.63;;;2.78;;
35150;SDS011;55720;51.972;4.624;2023-12-22T00:19:57;24.15;;;2.50;;
35150;SDS011;55720;51.972;4.624;2023-12-22T00:22:24;21.52;;;3.00;;
35150;SDS011;55720;51.972;4.624;2023-12-22T00:24:50;16.35;;;1.80;;
35150;SDS011;55720;51.972;4.624;2023-12-22T00:27:15;18.50;;;2.45;;
35150;SDS011;55720;51.972;4.624;2023-12-22T00:29:41;29.83;;;3.00;;
35150;SDS011;55720;51.972;4.624;2023-12-22T00:32:06;21.50;;;2.40;;
35150;SDS011;55720;51.972;4.624;2023-12-22T00:34:34;13.55;;;2.10;;
35150;SDS011;55720;51.972;4.624;2023-12-22T00:36:59;24.87;;;2.40;;
35150;SDS011;55720;51.972;4.624;2023-12-22T00:39:25;11.20;;;2.00;;
35150;SDS011;55720;51.972;4.624;2023-12-22T00:41:50;12.68;;;1.95;;
35150;SDS011;55720;51.972;4.624;2023-12-22T00:44:15;17.23;;;2.13;;
35150;SDS011;55720;51.972;4.624;2023-12-22T00:46:41;17.47;;;2.13;;
35150;SDS011;55720;51.972;4.624;2023-12-22T00:49:06;16.10;;;2.00;;
35150;SDS011;55720;51.972;4.624;2023-12-22T00:51:31;9.07;;;1.03;;
35150;SDS011;55720;51.972;4.624;2023-12-22T00:53:56;18.73;;;2.10;;
35150;SDS011;55720;51.972;4.624;2023-12-22T00:56:21;9.05;;;1.38;;
35150;SDS011;55720;51.972;4.624;2023-12-22T00:58:47;9.90;;;1.70;;
35150;SDS011;55720;51.972;4.624;2023-12-22T01:01:12;17.20;;;2.10;;
35150;SDS011;55720;51.972;4.624;2023-12-22T01:03:37;9.33;;;1.87;;
35150;SDS011;55720;51.972;4.624;2023-12-22T01:06:02;18.45;;;2.00;;
35150;SDS011;55720;51.972;4.624;2023-12-22T01:08:28;24.23;;;1.83;;
35150;SDS011;55720;51.972;4.624;2023-12-22T01:10:53;23.00;;;2.33;;
35150;SDS011;55720;51.972;4.624;2023-12-22T01:13:18;13.93;;;1.40;;
35150;SDS011;55720;51.972;4.624;2023-12-22T01:15:43;13.20;;;2.27;;
35150;SDS011;55720;51.972;4.624;2023-12-22T01:18:09;20.00;;;2.47;;
35150;SDS011;55720;51.972;4.624;2023-12-22T01:20:34;6.97;;;1.50;;
35150;SDS011;55720;51.972;4.624;2023-12-22T01:23:00;17.07;;;1.80;;
35150;SDS011;55720;51.972;4.624;2023-12-22T01:25:25;22.23;;;1.83;;
35150;SDS011;55720;51.972;4.624;2023-12-22T01:27:50;14.70;;;1.80;;
35150;SDS011;55720;51.972;4.624;2023-12-22T01:30:17;17.70;;;1.50;;
35150;SDS011;55720;51.972;4.624;2023-12-22T01:32:42;12.68;;;2.35;;
35150;SDS011;55720;51.972;4.624;2023-12-22T01:35:07;6.32;;;1.30;;
35150;SDS011;55720;51.972;4.624;2023-12-22T01:37:37;11.63;;;2.00;;
35150;SDS011;55720;51.972;4.624;2023-12-22T01:40:03;15.32;;;1.80;;
35150;SDS011;55720;51.972;4.624;2023-12-22T01:42:28;11.20;;;1.50;;
35150;SDS011;55720;51.972;4.624;2023-12-22T01:44:54;13.52;;;1.60;;
35150;SDS011;55720;51.972;4.624;2023-12-22T01:47:19;11.32;;;1.27;;
35150;SDS011;55720;51.972;4.624;2023-12-22T01:49:45;9.05;;;1.17;;
35150;SDS011;55720;51.972;4.624;2023-12-22T01:52:10;15.95;;;2.03;;
35150;SDS011;55720;51.972;4.624;2023-12-22T01:54:36;16.45;;;1.92;;
35150;SDS011;55720;51.972;4.624;2023-12-22T01:57:01;20.08;;;1.70;;
35150;SDS011;55720;51.972;4.624;2023-12-22T01:59:27;17.58;;;1.52;;
35150;SDS011;55720;51.972;4.624;2023-12-22T02:01:53;12.75;;;1.90;;
35150;SDS011;55720;51.972;4.624;2023-12-22T02:04:18;19.95;;;2.80;;
35150;SDS011;55720;51.972;4.624;2023-12-22T02:06:44;26.65;;;2.92;;
35150;SDS011;55720;51.972;4.624;2023-12-22T02:09:09;15.45;;;2.08;;
35150;SDS011;55720;51.972;4.624;2023-12-22T02:11:34;19.98;;;2.03;;
35150;SDS011;55720;51.972;4.624;2023-12-22T02:13:59;14.07;;;2.67;;
35150;SDS011;55720;51.972;4.624;2023-12-22T02:16:32;16.70;;;1.55;;
35150;SDS011;55720;51.972;4.624;2023-12-22T02:18:59;13.63;;;1.88;;
35150;SDS011;55720;51.972;4.624;2023-12-22T02:21:29;10.52;;;1.38;;
35150;SDS011;55720;51.972;4.624;2023-12-22T02:23:54;10.88;;;1.60;;
35150;SDS011;55720;51.972;4.624;2023-12-22T02:26:27;12.38;;;1.67;;
35150;SDS011;55720;51.972;4.624;2023-12-22T02:28:54;15.98;;;2.22;;
35150;SDS011;55720;51.972;4.624;2023-12-22T02:31:41;12.68;;;1.60;;
35150;SDS011;55720;51.972;4.624;2023-12-22T02:34:12;16.10;;;1.85;;
35150;SDS011;55720;51.972;4.624;2023-12-22T02:36:38;9.15;;;1.65;;
35150;SDS011;55720;51.972;4.624;2023-12-22T02:39:04;14.38;;;2.85;;
35150;SDS011;55720;51.972;4.624;2023-12-22T02:41:30;11.63;;;1.38;;
35150;SDS011;55720;51.972;4.624;2023-12-22T02:43:55;11.77;;;1.75;;
35150;SDS011;55720;51.972;4.624;2023-12-22T02:46:21;14.77;;;1.33;;
35150;SDS011;55720;51.972;4.624;2023-12-22T02:48:46;8.77;;;1.40;;
35150;SDS011;55720;51.972;4.624;2023-12-22T02:51:11;11.38;;;1.92;;
35150;SDS011;55720;51.972;4.624;2023-12-22T02:53:37;8.65;;;1.73;;
35150;SDS011;55720;51.972;4.624;2023-12-22T02:56:02;22.40;;;1.75;;
35150;SDS011;55720;51.972;4.624;2023-12-22T02:58:28;15.85;;;2.03;;
35150;SDS011;55720;51.972;4.624;2023-12-22T03:00:53;11.20;;;1.40;;
35150;SDS011;55720;51.972;4.624;2023-12-22T03:03:18;19.23;;;1.70;;
35150;SDS011;55720;51.972;4.624;2023-12-22T03:05:43;7.22;;;1.15;;
35150;SDS011;55720;51.972;4.624;2023-12-22T03:08:09;10.32;;;1.60;;
35150;SDS011;55720;51.972;4.624;2023-12-22T03:10:34;8.07;;;1.42;;
35150;SDS011;55720;51.972;4.624;2023-12-22T03:12:59;9.17;;;1.80;;
35150;SDS011;55720;51.972;4.624;2023-12-22T03:15:24;15.90;;;2.00;;
35150;SDS011;55720;51.972;4.624;2023-12-22T03:17:50;12.27;;;1.85;;
35150;SDS011;55720;51.972;4.624;2023-12-22T03:20:15;15.32;;;1.90;;
35150;SDS011;55720;51.972;4.624;2023-12-22T03:22:41;12.37;;;1.60;;
35150;SDS011;55720;51.972;4.624;2023-12-22T03:25:06;10.77;;;1.30;;
35150;SDS011;55720;51.972;4.624;2023-12-22T03:27:31;12.82;;;1.88;;
35150;SDS011;55720;51.972;4.624;2023-12-22T03:29:57;11.70;;;2.60;;
35150;SDS011;55720;51.972;4.624;2023-12-22T03:32:22;8.40;;;1.70;;
35150;SDS011;55720;51.972;4.624;2023-12-22T03:34:47;11.30;;;1.48;;
35150;SDS011;55720;51.972;4.624;2023-12-22T03:37:13;16.77;;;2.45;;
35150;SDS011;55720;51.972;4.624;2023-12-22T03:39:38;13.00;;;1.97;;
35150;SDS011;55720;51.972;4.624;2023-12-22T03:42:03;15.63;;;1.57;;
35150;SDS011;55720;51.972;4.624;2023-12-22T03:44:28;13.25;;;2.05;;
35150;SDS011;55720;51.972;4.624;2023-12-22T03:46:54;9.45;;;1.30;;
35150;SDS011;55720;51.972;4.624;2023-12-22T03:49:19;15.07;;;2.10;;
35150;SDS011;55720;51.972;4.624;2023-12-22T03:51:44;13.27;;;1.60;;
35150;SDS011;55720;51.972;4.624;2023-12-22T03:54:09;15.95;;;1.88;;
35150;SDS011;55720;51.972;4.624;2023-12-22T03:56:35;17.05;;;1.85;;
35150;SDS011;55720;51.972;4.624;2023-12-22T03:59:00;13.13;;;1.95;;
35150;SDS011;55720;51.972;4.624;2023-12-22T04:01:25;21.40;;;2.03;;
35150;SDS011;55720;51.972;4.624;2023-12-22T04:03:51;9.63;;;1.50;;
35150;SDS011;55720;51.972;4.624;2023-12-22T04:06:16;8.27;;;1.63;;
35150;SDS011;55720;51.972;4.624;2023-12-22T04:08:41;9.03;;;1.37;;
35150;SDS011;55720;51.972;4.624;2023-12-22T04:11:06;13.85;;;1.98;;
35150;SDS011;55720;51.972;4.624;2023-12-22T04:13:31;9.77;;;1.30;;
35150;SDS011;55720;51.972;4.624;2023-12-22T04:15:57;9.17;;;1.53;;
35150;SDS011;55720;51.972;4.624;2023-12-22T04:18:22;5.53;;;1.10;;
35150;SDS011;55720;51.972;4.624;2023-12-22T04:20:47;10.20;;;1.52;;
35150;SDS011;55720;51.972;4.624;2023-12-22T04:23:16;11.05;;;1.33;;
35150;SDS011;55720;51.972;4.624;2023-12-22T04:25:41;11.45;;;1.40;;
35150;SDS011;55720;51.972;4.624;2023-12-22T04:28:07;12.30;;;1.60;;
35150;SDS011;55720;51.972;4.624;2023-12-22T04:30:32;16.17;;;1.40;;
35150;SDS011;55720;51.972;4.624;2023-12-22T04:32:57;12.67;;;1.17;;
35150;SDS011;55720;51.972;4.624;2023-12-22T04:35:22;7.73;;;1.20;;
35150;SDS011;55720;51.972;4.624;2023-12-22T04:37:47;7.35;;;1.75;;
35150;SDS011;55720;51.972;4.624;2023-12-22T04:40:13;12.57;;;1.67;;
35150;SDS011;55720;51.972;4.624;2023-12-22T04:42:38;18.07;;;2.20;;
35150;SDS011;55720;51.972;4.624;2023-12-22T04:45:03;9.52;;;1.13;;
35150;SDS011;55720;51.972;4.624;2023-12-22T04:47:28;13.98;;;2.10;;
35150;SDS011;55720;51.972;4.624;2023-12-22T04:49:54;11.00;;;1.93;;
35150;SDS011;55720;51.972;4.624;2023-12-22T04:52:19;10.90;;;1.83;;
35150;SDS011;55720;51.972;4.624;2023-12-22T04:54:44;12.17;;;1.57;;
35150;SDS011;55720;51.972;4.624;2023-12-22T04:57:09;12.48;;;1.77;;
35150;SDS011;55720;51.972;4.624;2023-12-22T04:59:35;10.60;;;1.40;;
35150;SDS011;55720;51.972;4.624;2023-12-22T05:02:00;12.07;;;1.83;;
35150;SDS011;55720;51.972;4.624;2023-12-22T05:04:25;19.02;;;2.20;;
35150;SDS011;55720;51.972;4.624;2023-12-22T05:06:50;12.32;;;1.88;;
35150;SDS011;55720;51.972;4.624;2023-12-22T05:09:16;14.70;;;1.55;;
35150;SDS011;55720;51.972;4.624;2023-12-22T05:11:41;9.65;;;1.55;;
35150;SDS011;55720;51.972;4.624;2023-12-22T05:14:06;16.55;;;1.75;;
35150;SDS011;55720;51.972;4.624;2023-12-22T05:16:32;9.67;;;2.00;;
35150;SDS011;55720;51.972;4.624;2023-12-22T05:18:57;12.82;;;1.52;;
35150;SDS011;55720;51.972;4.624;2023-12-22T05:21:23;11.98;;;1.58;;
35150;SDS011;55720;51.972;4.624;2023-12-22T05:23:48;13.85;;;1.88;;
35150;SDS011;55720;51.972;4.624;2023-12-22T05:26:19;15.70;;;1.70;;
35150;SDS011;55720;51.972;4.624;2023-12-22T05:28:45;13.68;;;2.22;;
35150;SDS011;55720;51.972;4.624;2023-12-22T05:31:10;14.53;;;2.10;;
35150;SDS011;55720;51.972;4.624;2023-12-22T05:33:35;10.47;;;2.07;;
35150;SDS011;55720;51.972;4.624;2023-12-22T05:36:00;15.82;;;1.40;;
35150;SDS011;55720;51.972;4.624;2023-12-22T05:38:26;17.47;;;2.60;;
35150;SDS011;55720;51.972;4.624;2023-12-22T05:40:51;19.10;;;2.95;;
35150;SDS011;55720;51.972;4.624;2023-12-22T05:43:16;22.10;;;2.90;;
35150;SDS011;55720;51.972;4.624;2023-12-22T05:45:41;22.83;;;3.53;;
35150;SDS011;55720;51.972;4.624;2023-12-22T05:48:06;23.87;;;3.13;;
35150;SDS011;55720;51.972;4.624;2023-12-22T05:50:32;24.00;;;3.33;;
35150;SDS011;55720;51.972;4.624;2023-12-22T05:52:57;24.77;;;3.55;;
35150;SDS011;55720;51.972;4.624;2023-12-22T05:55:22;31.85;;;3.03;;
35150;SDS011;55720;51.972;4.624;2023-12-22T05:57:48;26.63;;;3.80;;
35150;SDS011;55720;51.972;4.624;2023-12-22T06:00:13;27.97;;;4.33;;
35150;SDS011;55720;51.972;4.624;2023-12-22T06:02:40;24.42;;;4.10;;
35150;SDS011;55720;51.972;4.624;2023-12-22T06:05:05;31.75;;;3.10;;
35150;SDS011;55720;51.972;4.624;2023-12-22T06:07:30;18.10;;;3.20;;
35150;SDS011;55720;51.972;4.624;2023-12-22T06:09:56;25.58;;;3.63;;
35150;SDS011;55720;51.972;4.624;2023-12-22T06:12:21;28.40;;;3.57;;
35150;SDS011;55720;51.972;4.624;2023-12-22T06:14:46;27.83;;;3.80;;
35150;SDS011;55720;51.972;4.624;2023-12-22T06:17:11;26.03;;;2.97;;
35150;SDS011;55720;51.972;4.624;2023-12-22T06:19:36;40.57;;;4.67;;
35150;SDS011;55720;51.972;4.624;2023-12-22T06:22:02;27.33;;;3.42;;
35150;SDS011;55720;51.972;4.624;2023-12-22T06:24:27;26.70;;;4.07;;
35150;SDS011;55720;51.972;4.624;2023-12-22T06:26:53;25.73;;;3.00;;
35150;SDS011;55720;51.972;4.624;2023-12-22T06:29:18;29.67;;;4.53;;
35150;SDS011;55720;51.972;4.624;2023-12-22T06:31:43;23.45;;;3.30;;
35150;SDS011;55720;51.972;4.624;2023-12-22T06:34:08;29.77;;;3.90;;
35150;SDS011;55720;51.972;4.624;2023-12-22T06:36:34;25.90;;;3.30;;
35150;SDS011;55720;51.972;4.624;2023-12-22T06:38:59;30.50;;;4.10;;
35150;SDS011;55720;51.972;4.624;2023-12-22T06:41:25;33.23;;;4.27;;
35150;SDS011;55720;51.972;4.624;2023-12-22T06:43:50;25.02;;;3.40;;
35150;SDS011;55720;51.972;4.624;2023-12-22T06:46:19;27.45;;;4.20;;
35150;SDS011;55720;51.972;4.624;2023-12-22T06:48:45;27.30;;;3.22;;
35150;SDS011;55720;51.972;4.624;2023-12-22T06:51:43;22.20;;;2.83;;
35150;SDS011;55720;51.972;4.624;2023-12-22T06:54:03;36.67;;;4.10;;
35150;SDS011;55720;51.972;4.624;2023-12-22T06:56:30;24.38;;;3.70;;
35150;SDS011;55720;51.972;4.624;2023-12-22T06:58:56;26.58;;;3.10;;
35150;SDS011;55720;51.972;4.624;2023-12-22T07:01:23;25.25;;;4.80;;
35150;SDS011;55720;51.972;4.624;2023-12-22T07:03:49;21.23;;;3.15;;
35150;SDS011;55720;51.972;4.624;2023-12-22T07:06:18;22.75;;;3.28;;
35150;SDS011;55720;51.972;4.624;2023-12-22T07:08:43;30.75;;;3.70;;
35150;SDS011;55720;51.972;4.624;2023-12-22T07:11:09;20.70;;;2.88;;
35150;SDS011;55720;51.972;4.624;2023-12-22T07:13:34;22.08;;;3.15;;
35150;SDS011;55720;51.972;4.624;2023-12-22T07:15:59;20.37;;;2.43;;
35150;SDS011;55720;51.972;4.624;2023-12-22T07:18:27;21.35;;;2.65;;
35150;SDS011;55720;51.972;4.624;2023-12-22T07:20:55;17.75;;;2.92;;
35150;SDS011;55720;51.972;4.624;2023-12-22T07:23:20;21.15;;;3.10;;
35150;SDS011;55720;51.972;4.624;2023-12-22T07:25:45;27.00;;;3.30;;
35150;SDS011;55720;51.972;4.624;2023-12-22T07:28:10;18.60;;;3.20;;
35150;SDS011;55720;51.972;4.624;2023-12-22T07:30:36;23.40;;;3.03;;
35150;SDS011;55720;51.972;4.624;2023-12-22T07:33:01;23.67;;;2.78;;
35150;SDS011;55720;51.972;4.624;2023-12-22T07:35:26;28.70;;;3.10;;
35150;SDS011;55720;51.972;4.624;2023-12-22T07:37:51;21.27;;;2.97;;
35150;SDS011;55720;51.972;4.624;2023-12-22T07:40:17;18.17;;;2.72;;
35150;SDS011;55720;51.972;4.624;2023-12-22T07:42:42;23.40;;;2.00;;
35150;SDS011;55720;51.972;4.624;2023-12-22T07:45:07;18.97;;;3.17;;
35150;SDS011;55720;51.972;4.624;2023-12-22T07:47:34;10.63;;;2.28;;
35150;SDS011;55720;51.972;4.624;2023-12-22T07:49:59;20.33;;;2.67;;
35150;SDS011;55720;51.972;4.624;2023-12-22T07:52:24;17.53;;;2.60;;
35150;SDS011;55720;51.972;4.624;2023-12-22T07:54:49;32.47;;;4.17;;
35150;SDS011;55720;51.972;4.624;2023-12-22T07:57:16;12.45;;;2.30;;
35150;SDS011;55720;51.972;4.624;2023-12-22T07:59:41;18.97;;;2.67;;
35150;SDS011;55720;51.972;4.624;2023-12-22T08:02:06;18.60;;;1.97;;
35150;SDS011;55720;51.972;4.624;2023-12-22T08:04:31;11.38;;;1.98;;
35150;SDS011;55720;51.972;4.624;2023-12-22T08:06:57;16.20;;;2.70;;
35150;SDS011;55720;51.972;4.624;2023-12-22T08:09:22;18.35;;;2.20;;
35150;SDS011;55720;51.972;4.624;2023-12-22T08:11:48;9.75;;;1.80;;
35150;SDS011;55720;51.972;4.624;2023-12-22T08:14:17;21.67;;;2.33;;
35150;SDS011;55720;51.972;4.624;2023-12-22T08:16:42;26.13;;;3.37;;
35150;SDS011;55720;51.972;4.624;2023-12-22T08:19:09;10.98;;;1.92;;
35150;SDS011;55720;51.972;4.624;2023-12-22T08:21:34;15.90;;;1.73;;
35150;SDS011;55720;51.972;4.624;2023-12-22T08:23:59;13.90;;;2.60;;
35150;SDS011;55720;51.972;4.624;2023-12-22T08:26:25;20.00;;;2.30;;
35150;SDS011;55720;51.972;4.624;2023-12-22T08:28:50;9.13;;;1.50;;
35150;SDS011;55720;51.972;4.624;2023-12-22T08:31:15;7.93;;;1.20;;
35150;SDS011;55720;51.972;4.624;2023-12-22T08:33:40;11.48;;;1.70;;
35150;SDS011;55720;51.972;4.624;2023-12-22T08:36:08;8.80;;;1.20;;
35150;SDS011;55720;51.972;4.624;2023-12-22T08:38:33;9.10;;;1.33;;
35150;SDS011;55720;51.972;4.624;2023-12-22T08:40:59;5.38;;;1.30;;
35150;SDS011;55720;51.972;4.624;2023-12-22T08:43:24;10.02;;;1.60;;
35150;SDS011;55720;51.972;4.624;2023-12-22T08:45:49;9.23;;;1.50;;
35150;SDS011;55720;51.972;4.624;2023-12-22T08:48:15;10.05;;;1.33;;
35150;SDS011;55720;51.972;4.624;2023-12-22T08:50:40;9.03;;;1.50;;
35150;SDS011;55720;51.972;4.624;2023-12-22T08:53:05;8.33;;;0.93;;
35150;SDS011;55720;51.972;4.624;2023-12-22T08:55:30;13.83;;;1.20;;
35150;SDS011;55720;51.972;4.624;2023-12-22T08:57:55;4.38;;;0.90;;
35150;SDS011;55720;51.972;4.624;2023-12-22T09:00:21;5.57;;;0.52;;
35150;SDS011;55720;51.972;4.624;2023-12-22T09:02:46;4.47;;;0.95;;
35150;SDS011;55720;51.972;4.624;2023-12-22T09:05:11;10.97;;;1.30;;
35150;SDS011;55720;51.972;4.624;2023-12-22T09:07:36;7.70;;;1.00;;
35150;SDS011;55720;51.972;4.624;2023-12-22T09:10:02;9.80;;;1.17;;
35150;SDS011;55720;51.972;4.624;2023-12-22T09:12:28;5.95;;;0.80;;
35150;SDS011;55720;51.972;4.624;2023-12-22T09:14:53;7.13;;;1.30;;
35150;SDS011;55720;51.972;4.624;2023-12-22T09:17:18;3.60;;;0.93;;
35150;SDS011;55720;51.972;4.624;2023-12-22T09:19:44;1.93;;;0.80;;
35150;SDS011;55720;51.972;4.624;2023-12-22T09:22:09;11.83;;;1.00;;
35150;SDS011;55720;51.972;4.624;2023-12-22T09:24:34;6.03;;;1.33;;
35150;SDS011;55720;51.972;4.624;2023-12-22T09:26:59;14.93;;;1.03;;
35150;SDS011;55720;51.972;4.624;2023-12-22T09:29:28;4.18;;;0.90;;
35150;SDS011;55720;51.972;4.624;2023-12-22T09:31:54;6.07;;;1.05;;
35150;SDS011;55720;51.972;4.624;2023-12-22T09:34:19;7.65;;;1.17;;
35150;SDS011;55720;51.972;4.624;2023-12-22T09:36:44;5.93;;;1.17;;
35150;SDS011;55720;51.972;4.624;2023-12-22T09:39:09;4.40;;;0.97;;
35150;SDS011;55720;51.972;4.624;2023-12-22T09:41:34;11.90;;;1.20;;
35150;SDS011;55720;51.972;4.624;2023-12-22T09:44:00;3.60;;;0.93;;
35150;SDS011;55720;51.972;4.624;2023-12-22T09:46:26;8.85;;;1.10;;
35150;SDS011;55720;51.972;4.624;2023-12-22T09:48:52;5.72;;;0.82;;
35150;SDS011;55720;51.972;4.624;2023-12-22T09:51:17;5.13;;;1.25;;
35150;SDS011;55720;51.972;4.624;2023-12-22T09:53:42;4.53;;;0.95;;
35150;SDS011;55720;51.972;4.624;2023-12-22T09:56:09;2.10;;;0.82;;
35150;SDS011;55720;51.972;4.624;2023-12-22T09:58:34;9.02;;;1.20;;
35150;SDS011;55720;51.972;4.624;2023-12-22T10:01:00;6.85;;;1.55;;
35150;SDS011;55720;51.972;4.624;2023-12-22T10:03:28;5.47;;;1.27;;
35150;SDS011;55720;51.972;4.624;2023-12-22T10:05:53;9.20;;;1.23;;
35150;SDS011;55720;51.972;4.624;2023-12-22T10:08:19;4.47;;;0.80;;
35150;SDS011;55720;51.972;4.624;2023-12-22T10:10:45;10.77;;;1.65;;
35150;SDS011;55720;51.972;4.624;2023-12-22T10:13:12;9.18;;;1.08;;
35150;SDS011;55720;51.972;4.624;2023-12-22T10:15:38;5.63;;;0.57;;
35150;SDS011;55720;51.972;4.624;2023-12-22T10:18:06;6.60;;;1.08;;
35150;SDS011;55720;51.972;4.624;2023-12-22T10:20:31;10.88;;;1.52;;
35150;SDS011;55720;51.972;4.624;2023-12-22T10:22:56;6.13;;;1.08;;
35150;SDS011;55720;51.972;4.624;2023-12-22T10:25:24;8.75;;;1.40;;
35150;SDS011;55720;51.972;4.624;2023-12-22T10:27:52;9.75;;;1.30;;
35150;SDS011;55720;51.972;4.624;2023-12-22T10:30:18;6.85;;;0.93;;
35150;SDS011;55720;51.972;4.624;2023-12-22T10:32:44;3.65;;;1.40;;
35150;SDS011;55720;51.972;4.624;2023-12-22T10:35:09;9.80;;;1.27;;
35150;SDS011;55720;51.972;4.624;2023-12-22T10:37:35;3.22;;;0.98;;
35150;SDS011;55720;51.972;4.624;2023-12-22T10:40:03;4.00;;;0.82;;
35150;SDS011;55720;51.972;4.624;2023-12-22T10:42:28;6.75;;;1.45;;
35150;SDS011;55720;51.972;4.624;2023-12-22T10:44:54;8.00;;;1.30;;
35150;SDS011;55720;51.972;4.624;2023-12-22T10:47:20;9.73;;;1.00;;
35150;SDS011;55720;51.972;4.624;2023-12-22T10:49:46;5.95;;;1.15;;
35150;SDS011;55720;51.972;4.624;2023-12-22T10:52:15;7.35;;;0.90;;
35150;SDS011;55720;51.972;4.624;2023-12-22T10:54:41;2.72;;;0.60;;
35150;SDS011;55720;51.972;4.624;2023-12-22T10:57:06;3.73;;;0.90;;
35150;SDS011;55720;51.972;4.624;2023-12-22T10:59:31;10.48;;;1.65;;
35150;SDS011;55720;51.972;4.624;2023-12-22T11:01:58;6.13;;;0.73;;
35150;SDS011;55720;51.972;4.624;2023-12-22T11:04:25;12.13;;;1.60;;
35150;SDS011;55720;51.972;4.624;2023-12-22T11:06:54;8.50;;;1.42;;
35150;SDS011;55720;51.972;4.624;2023-12-22T11:09:21;7.68;;;1.40;;
35150;SDS011;55720;51.972;4.624;2023-12-22T11:11:47;6.65;;;1.10;;
35150;SDS011;55720;51.972;4.624;2023-12-22T11:14:12;14.40;;;1.52;;
35150;SDS011;55720;51.972;4.624;2023-12-22T11:16:38;12.65;;;1.52;;
35150;SDS011;55720;51.972;4.624;2023-12-22T11:19:06;12.95;;;1.00;;
35150;SDS011;55720;51.972;4.624;2023-12-22T11:21:31;2.90;;;1.35;;
35150;SDS011;55720;51.972;4.624;2023-12-22T11:23:57;12.90;;;1.50;;
35150;SDS011;55720;51.972;4.624;2023-12-22T11:26:23;7.55;;;1.40;;
35150;SDS011;55720;51.972;4.624;2023-12-22T11:28:49;4.22;;;0.88;;
35150;SDS011;55720;51.972;4.624;2023-12-22T11:31:16;7.63;;;1.25;;
35150;SDS011;55720;51.972;4.624;2023-12-22T11:33:45;7.20;;;1.00;;
35150;SDS011;55720;51.972;4.624;2023-12-22T11:36:13;6.22;;;1.20;;
35150;SDS011;55720;51.972;4.624;2023-12-22T11:38:42;4.63;;;1.20;;
35150;SDS011;55720;51.972;4.624;2023-12-22T11:41:09;9.65;;;1.60;;
35150;SDS011;55720;51.972;4.624;2023-12-22T11:43:35;6.30;;;1.00;;
35150;SDS011;55720;51.972;4.624;2023-12-22T11:46:04;15.73;;;1.90;;
35150;SDS011;55720;51.972;4.624;2023-12-22T11:48:30;9.77;;;1.30;;
35150;SDS011;55720;51.972;4.624;2023-12-22T11:50:55;5.93;;;0.88;;
35150;SDS011;55720;51.972;4.624;2023-12-22T11:55:58;6.65;;;1.00;;
35150;SDS011;55720;51.972;4.624;2023-12-22T12:03:35;12.35;;;1.25;;
35150;SDS011;55720;51.972;4.624;2023-12-22T12:08:35;4.07;;;0.90;;
35150;SDS011;55720;51.972;4.624;2023-12-22T12:11:00;8.70;;;1.00;;
35150;SDS011;55720;51.972;4.624;2023-12-22T12:13:28;5.03;;;1.10;;
35150;SDS011;55720;51.972;4.624;2023-12-22T12:15:54;5.65;;;0.80;;
35150;SDS011;55720;51.972;4.624;2023-12-22T12:18:22;5.32;;;0.80;;
35150;SDS011;55720;51.972;4.624;2023-12-22T12:20:50;7.68;;;0.93;;
35150;SDS011;55720;51.972;4.624;2023-12-22T12:23:16;10.50;;;1.10;;
35150;SDS011;55720;51.972;4.624;2023-12-22T12:25:41;8.10;;;1.67;;
35150;SDS011;55720;51.972;4.624;2023-12-22T12:28:07;9.27;;;1.05;;
35150;SDS011;55720;51.972;4.624;2023-12-22T12:30:36;5.18;;;0.80;;
35150;SDS011;55720;51.972;4.624;2023-12-22T12:33:06;5.25;;;1.30;;
35150;SDS011;55720;51.972;4.624;2023-12-22T12:35:32;4.72;;;1.08;;
35150;SDS011;55720;51.972;4.624;2023-12-22T12:37:57;3.42;;;0.90;;
35150;SDS011;55720;51.972;4.624;2023-12-22T12:40:23;9.68;;;0.82;;
35150;SDS011;55720;51.972;4.624;2023-12-22T12:42:49;12.98;;;1.45;;
35150;SDS011;55720;51.972;4.624;2023-12-22T12:45:14;12.02;;;1.20;;
35150;SDS011;55720;51.972;4.624;2023-12-22T12:47:40;8.33;;;1.00;;
35150;SDS011;55720;51.972;4.624;2023-12-22T12:50:05;5.05;;;1.20;;
35150;SDS011;55720;51.972;4.624;2023-12-22T12:52:30;5.78;;;1.20;;
35150;SDS011;55720;51.972;4.624;2023-12-22T12:54:56;9.60;;;1.80;;
35150;SDS011;55720;51.972;4.624;2023-12-22T12:57:23;10.40;;;1.25;;
35150;SDS011;55720;51.972;4.624;2023-12-22T12:59:49;12.02;;;1.42;;
35150;SDS011;55720;51.972;4.624;2023-12-22T13:02:15;6.95;;;1.23;;
35150;SDS011;55720;51.972;4.624;2023-12-22T13:04:40;7.65;;;1.48;;
35150;SDS011;55720;51.972;4.624;2023-12-22T13:07:05;11.03;;;1.37;;
35150;SDS011;55720;51.972;4.624;2023-12-22T13:09:32;9.23;;;1.48;;
35150;SDS011;55720;51.972;4.624;2023-12-22T13:11:57;9.93;;;1.08;;
35150;SDS011;55720;51.972;4.624;2023-12-22T13:14:23;10.40;;;1.40;;
35150;SDS011;55720;51.972;4.624;2023-12-22T13:16:52;7.55;;;1.35;;
35150;SDS011;55720;51.972;4.624;2023-12-22T13:19:20;5.13;;;0.95;;
35150;SDS011;55720;51.972;4.624;2023-12-22T13:21:45;8.77;;;1.60;;
35150;SDS011;55720;51.972;4.624;2023-12-22T13:24:14;16.77;;;2.00;;
35150;SDS011;55720;51.972;4.624;2023-12-22T13:26:40;12.95;;;1.58;;
35150;SDS011;55720;51.972;4.624;2023-12-22T13:29:06;7.80;;;1.10;;
35150;SDS011;55720;51.972;4.624;2023-12-22T13:31:32;9.02;;;1.38;;
35150;SDS011;55720;51.972;4.624;2023-12-22T13:33:58;15.90;;;1.75;;
35150;SDS011;55720;51.972;4.624;2023-12-22T13:36:23;8.45;;;1.40;;
35150;SDS011;55720;51.972;4.624;2023-12-22T13:38:48;9.43;;;1.92;;
35150;SDS011;55720;51.972;4.624;2023-12-22T13:41:14;7.38;;;1.10;;
35150;SDS011;55720;51.972;4.624;2023-12-22T13:43:40;8.70;;;1.33;;
35150;SDS011;55720;51.972;4.624;2023-12-22T13:46:05;10.10;;;1.35;;
35150;SDS011;55720;51.972;4.624;2023-12-22T13:48:33;10.90;;;2.08;;
35150;SDS011;55720;51.972;4.624;2023-12-22T13:50:59;9.80;;;1.45;;
35150;SDS011;55720;51.972;4.624;2023-12-22T13:53:24;10.40;;;1.20;;
35150;SDS011;55720;51.972;4.624;2023-12-22T13:55:59;10.73;;;2.10;;
35150;SDS011;55720;51.972;4.624;2023-12-22T13:58:24;8.20;;;1.33;;
35150;SDS011;55720;51.972;4.624;2023-12-22T14:00:50;13.77;;;1.42;;
35150;SDS011;55720;51.972;4.624;2023-12-22T14:03:16;11.95;;;2.00;;
35150;SDS011;55720;51.972;4.624;2023-12-22T14:05:50;13.15;;;2.05;;
35150;SDS011;55720;51.972;4.624;2023-12-22T14:08:17;9.75;;;1.83;;
35150;SDS011;55720;51.972;4.624;2023-12-22T14:10:45;9.82;;;2.65;;
35150;SDS011;55720;51.972;4.624;2023-12-22T14:13:12;10.97;;;1.33;;
35150;SDS011;55720;51.972;4.624;2023-12-22T14:15:37;11.87;;;2.20;;
35150;SDS011;55720;51.972;4.624;2023-12-22T14:18:02;11.70;;;1.58;;
35150;SDS011;55720;51.972;4.624;2023-12-22T14:20:28;8.25;;;1.70;;
35150;SDS011;55720;51.972;4.624;2023-12-22T14:22:53;10.98;;;1.95;;
35150;SDS011;55720;51.972;4.624;2023-12-22T14:25:18;12.50;;;1.63;;
35150;SDS011;55720;51.972;4.624;2023-12-22T14:27:43;16.57;;;2.20;;
35150;SDS011;55720;51.972;4.624;2023-12-22T14:30:09;14.97;;;1.80;;
35150;SDS011;55720;51.972;4.624;2023-12-22T14:32:34;10.63;;;1.80;;
35150;SDS011;55720;51.972;4.624;2023-12-22T14:34:59;13.47;;;1.90;;
35150;SDS011;55720;51.972;4.624;2023-12-22T14:37:25;15.57;;;1.88;;
35150;SDS011;55720;51.972;4.624;2023-12-22T14:39:51;7.90;;;1.73;;